createdAt,value
2022-09-17T00:01:40.487Z,100.00
2022-09-17T00:04:08.926Z,100.00
2022-09-17T00:06:37.188Z,100.00
2022-09-17T00:09:07.335Z,100.00
2022-09-17T00:11:37.413Z,100.00
2022-09-17T00:14:07.113Z,100.00
2022-09-17T00:16:36.822Z,100.00
2022-09-17T00:19:06.030Z,100.00
2022-09-17T00:21:33.898Z,100.00
2022-09-17T00:24:04.686Z,100.00
2022-09-17T00:26:34.574Z,100.00
2022-09-17T00:29:02.628Z,100.00
2022-09-17T00:31:31.413Z,100.00
2022-09-17T00:34:00.243Z,100.00
2022-09-17T00:36:28.265Z,100.00
2022-09-17T00:38:57.882Z,100.00
2022-09-17T00:41:27.503Z,100.00
2022-09-17T00:43:58.262Z,100.00
2022-09-17T00:46:32.621Z,100.00
2022-09-17T00:49:02.224Z,100.00
2022-09-17T00:51:34.155Z,100.00
2022-09-17T00:54:02.924Z,100.00
2022-09-17T00:56:33.339Z,100.00
2022-09-17T00:59:03.274Z,100.00
2022-09-17T01:01:31.361Z,100.00
2022-09-17T01:03:59.185Z,100.00
2022-09-17T01:06:36.109Z,100.00
2022-09-17T01:09:21.949Z,100.00
2022-09-17T01:12:08.436Z,100.00
2022-09-17T01:14:49.168Z,100.00
2022-09-17T01:17:20.529Z,100.00
2022-09-17T01:20:10.951Z,100.00
2022-09-17T01:22:49.027Z,100.00
2022-09-17T01:25:24.815Z,100.00
2022-09-17T01:28:14.643Z,100.00
2022-09-17T01:31:05.626Z,100.00
2022-09-17T01:33:40.726Z,100.00
2022-09-17T01:36:17.675Z,100.00
2022-09-17T01:38:51.010Z,100.00
2022-09-17T01:41:23.753Z,100.00
2022-09-17T01:43:56.731Z,100.00
2022-09-17T01:46:28.425Z,100.00
2022-09-17T01:49:00.015Z,100.00
2022-09-17T01:51:30.252Z,100.00
2022-09-17T01:54:01.264Z,100.00
2022-09-17T01:56:32.767Z,100.00
2022-09-17T01:59:04.407Z,100.00
2022-09-17T02:01:34.718Z,100.00
2022-09-17T02:04:07.053Z,100.00
2022-09-17T02:06:38.690Z,100.00
2022-09-17T02:09:13.670Z,100.00
2022-09-17T02:11:44.547Z,100.00
2022-09-17T02:14:15.252Z,100.00
2022-09-17T02:16:48.343Z,100.00
2022-09-17T02:19:19.688Z,100.00
2022-09-17T02:21:51.256Z,100.00
2022-09-17T02:24:22.206Z,100.00
2022-09-17T02:26:54.612Z,100.00
2022-09-17T02:29:26.436Z,100.00
2022-09-17T02:31:55.805Z,100.00
2022-09-17T02:34:25.279Z,100.00
2022-09-17T02:36:53.477Z,100.00
2022-09-17T02:39:21.157Z,100.00
2022-09-17T02:41:54.194Z,100.00
2022-09-17T02:44:29.227Z,100.00
2022-09-17T02:47:13.150Z,100.00
2022-09-17T02:49:50.120Z,100.00
2022-09-17T02:52:24.620Z,100.00
2022-09-17T02:54:58.009Z,100.00
2022-09-17T02:57:31.086Z,100.00
2022-09-17T03:00:04.698Z,100.00
2022-09-17T03:02:37.339Z,100.00
2022-09-17T03:05:05.729Z,100.00
2022-09-17T03:07:34.510Z,100.00
2022-09-17T03:10:02.122Z,100.00
2022-09-17T03:12:29.782Z,100.00
2022-09-17T03:14:57.607Z,100.00
2022-09-17T03:17:25.917Z,100.00
2022-09-17T03:19:54.927Z,100.00
2022-09-17T03:22:22.557Z,100.00
2022-09-17T03:24:50.219Z,100.00
2022-09-17T03:27:17.866Z,100.00
2022-09-17T03:29:45.459Z,100.00
2022-09-17T03:32:13.042Z,100.00
2022-09-17T03:34:40.646Z,100.00
2022-09-17T03:37:09.624Z,100.00
2022-09-17T03:39:37.258Z,100.00
2022-09-17T03:42:05.221Z,100.00
2022-09-17T03:44:32.813Z,100.00
2022-09-17T03:47:00.394Z,100.00
2022-09-17T03:49:28.011Z,100.00
2022-09-17T03:51:55.648Z,100.00
2022-09-17T03:54:25.769Z,100.00
2022-09-17T03:56:53.350Z,100.00
2022-09-17T03:59:21.002Z,100.00
2022-09-17T04:01:48.780Z,100.00
2022-09-17T04:04:16.557Z,100.00
2022-09-17T04:06:44.187Z,100.00
2022-09-17T04:09:11.820Z,100.00
2022-09-17T04:11:40.819Z,100.00
2022-09-17T04:14:08.504Z,100.00
2022-09-17T04:16:36.264Z,100.00
2022-09-17T04:19:04.785Z,100.00
2022-09-17T04:21:32.465Z,100.00
2022-09-17T04:24:00.126Z,100.00
2022-09-17T04:26:27.755Z,100.00
2022-09-17T04:28:56.851Z,100.00
2022-09-17T04:31:25.110Z,100.00
2022-09-17T04:33:52.797Z,100.00
2022-09-17T04:36:20.458Z,100.00
2022-09-17T04:38:49.230Z,100.00
2022-09-17T04:41:17.053Z,100.00
2022-09-17T04:43:44.709Z,100.00
2022-09-17T04:46:14.602Z,100.00
2022-09-17T04:48:42.284Z,100.00
2022-09-17T04:51:09.925Z,100.00
2022-09-17T04:53:38.483Z,100.00
2022-09-17T04:56:06.735Z,100.00
2022-09-17T04:58:34.481Z,100.00
2022-09-17T05:01:02.217Z,100.00
2022-09-17T05:03:31.258Z,100.00
2022-09-17T05:05:58.918Z,100.00
2022-09-17T05:08:26.479Z,100.00
2022-09-17T05:11:23.905Z,100.00
2022-09-17T05:13:51.474Z,100.00
2022-09-17T05:16:19.172Z,100.00
2022-09-17T05:18:49.506Z,100.00
2022-09-17T05:21:17.174Z,100.00
2022-09-17T05:23:44.742Z,100.00
2022-09-17T05:26:12.379Z,100.00
2022-09-17T05:28:39.973Z,100.00
2022-09-17T05:31:07.609Z,100.00
2022-09-17T05:33:35.274Z,100.00
2022-09-17T05:36:04.759Z,100.00
2022-09-17T05:38:32.387Z,100.00
2022-09-17T05:40:59.978Z,100.00
2022-09-17T05:43:27.683Z,100.00
2022-09-17T05:45:55.255Z,100.00
2022-09-17T05:48:22.912Z,100.00
2022-09-17T05:50:50.565Z,100.00
2022-09-17T05:53:19.546Z,100.00
2022-09-17T05:55:47.167Z,100.00
2022-09-17T05:58:16.493Z,100.00
2022-09-17T06:00:48.052Z,100.00
2022-09-17T06:03:17.443Z,100.00
2022-09-17T06:05:45.792Z,100.00
2022-09-17T06:08:13.416Z,100.00
2022-09-17T06:10:42.405Z,100.00
2022-09-17T06:13:10.066Z,100.00
2022-09-17T06:15:37.717Z,100.00
2022-09-17T06:18:05.518Z,100.00
2022-09-17T06:20:33.813Z,100.00
2022-09-17T06:23:01.527Z,100.00
2022-09-17T06:25:29.499Z,100.00
2022-09-17T06:27:58.570Z,100.00
2022-09-17T06:30:26.250Z,100.00
2022-09-17T06:32:53.861Z,100.00
2022-09-17T06:36:02.905Z,100.00
2022-09-17T06:38:31.532Z,100.00
2022-09-17T06:40:59.337Z,100.00
2022-09-17T06:43:28.588Z,100.00
2022-09-17T06:45:57.137Z,100.00
2022-09-17T06:48:25.697Z,100.00
2022-09-17T06:50:54.358Z,100.00
2022-09-17T06:53:22.149Z,100.00
2022-09-17T06:55:49.970Z,100.00
2022-09-17T06:58:18.108Z,100.00
2022-09-17T07:00:47.771Z,100.00
2022-09-17T07:03:18.040Z,100.00
2022-09-17T07:05:47.673Z,100.00
2022-09-17T07:08:15.262Z,100.00
2022-09-17T07:10:42.887Z,100.00
2022-09-17T07:13:10.505Z,100.00
2022-09-17T07:15:38.276Z,100.00
2022-09-17T07:18:10.957Z,100.00
2022-09-17T07:20:39.156Z,100.00
2022-09-17T07:23:09.224Z,100.00
2022-09-17T07:25:36.826Z,100.00
2022-09-17T07:28:04.779Z,100.00
2022-09-17T07:30:32.526Z,100.00
2022-09-17T07:33:02.222Z,100.00
2022-09-17T07:35:31.228Z,100.00
2022-09-17T07:37:58.831Z,100.00
2022-09-17T07:40:26.468Z,100.00
2022-09-17T07:42:54.312Z,100.00
2022-09-17T07:45:21.898Z,100.00
2022-09-17T07:47:49.607Z,100.00
2022-09-17T07:50:17.699Z,100.00
2022-09-17T07:52:48.890Z,100.00
2022-09-17T07:55:17.033Z,100.00
2022-09-17T07:57:44.768Z,100.00
2022-09-17T08:00:14.438Z,100.00
2022-09-17T08:02:42.131Z,100.00
2022-09-17T08:05:10.331Z,100.00
2022-09-17T08:07:37.944Z,100.00
2022-09-17T08:10:07.903Z,99.91
2022-09-17T08:12:35.564Z,98.07
2022-09-17T08:15:03.504Z,98.86
2022-09-17T08:17:31.113Z,94.07
2022-09-17T08:19:58.946Z,96.50
2022-09-17T08:22:26.558Z,97.23
2022-09-17T08:24:54.264Z,97.83
2022-09-17T08:27:23.235Z,100.00
2022-09-17T08:29:50.851Z,95.91
2022-09-17T08:32:18.598Z,98.44
2022-09-17T08:34:51.308Z,94.58
2022-09-17T08:37:20.293Z,94.94
2022-09-17T08:39:47.947Z,94.40
2022-09-17T08:42:19.221Z,90.37
2022-09-17T08:44:51.844Z,95.63
2022-09-17T08:47:26.393Z,93.83
2022-09-17T08:49:55.951Z,93.43
2022-09-17T08:53:11.587Z,94.42
2022-09-17T08:55:42.139Z,94.44
2022-09-17T08:58:28.218Z,96.18
2022-09-17T09:01:02.595Z,88.35
2022-09-17T09:03:41.019Z,86.23
2022-09-17T09:06:10.999Z,88.27
2022-09-17T09:08:43.135Z,87.76
2022-09-17T09:11:16.296Z,87.35
2022-09-17T09:13:45.829Z,85.39
2022-09-17T09:16:17.226Z,83.66
2022-09-17T09:18:45.230Z,83.44
2022-09-17T09:21:23.476Z,79.49
2022-09-17T09:23:56.757Z,82.21
2022-09-17T09:26:25.842Z,83.53
2022-09-17T09:29:05.793Z,84.42
2022-09-17T09:31:49.021Z,82.44
2022-09-17T09:34:17.230Z,82.04
2022-09-17T09:36:45.383Z,81.24
2022-09-17T09:39:16.852Z,81.97
2022-09-17T09:41:46.595Z,86.50
2022-09-17T09:44:16.058Z,82.86
2022-09-17T09:47:01.691Z,84.06
2022-09-17T09:49:37.303Z,87.83
2022-09-17T09:52:12.907Z,84.82
2022-09-17T09:54:49.644Z,88.36
2022-09-17T09:57:20.027Z,89.91
2022-09-17T09:59:50.006Z,90.99
2022-09-17T10:02:22.120Z,95.19
2022-09-17T10:04:53.374Z,87.17
2022-09-17T10:07:21.351Z,89.93
2022-09-17T10:09:49.075Z,85.90
2022-09-17T10:12:18.580Z,87.78
2022-09-17T10:14:47.519Z,89.84
2022-09-17T10:17:22.260Z,89.29
2022-09-17T10:20:20.580Z,95.48
2022-09-17T10:22:51.100Z,96.13
2022-09-17T10:25:26.002Z,95.59
2022-09-17T10:27:53.711Z,98.52
2022-09-17T10:30:21.822Z,96.73
2022-09-17T10:33:13.720Z,92.19
2022-09-17T10:35:41.381Z,92.02
2022-09-17T10:38:28.399Z,88.10
2022-09-17T10:41:10.355Z,87.38
2022-09-17T10:43:38.163Z,88.74
2022-09-17T10:46:06.236Z,89.55
2022-09-17T10:48:41.139Z,90.44
2022-09-17T10:51:10.153Z,92.20
2022-09-17T10:53:59.247Z,98.62
2022-09-17T10:56:30.886Z,100.00
2022-09-17T10:59:05.221Z,100.00
2022-09-17T11:01:38.104Z,100.00
2022-09-17T11:04:31.535Z,100.00
2022-09-17T11:07:31.794Z,100.00
2022-09-17T11:10:04.922Z,100.00
2022-09-17T11:12:42.758Z,100.00
2022-09-17T11:15:19.953Z,100.00
2022-09-17T11:18:02.674Z,100.00
2022-09-17T11:20:43.011Z,100.00
2022-09-17T11:23:24.843Z,100.00
2022-09-17T11:26:00.305Z,100.00
2022-09-17T11:28:43.755Z,100.00
2022-09-17T11:31:24.232Z,100.00
2022-09-17T11:34:18.423Z,100.00
2022-09-17T11:36:52.834Z,100.00
2022-09-17T11:39:24.154Z,100.00
2022-09-17T11:41:53.007Z,100.00
2022-09-17T11:44:24.993Z,100.00
2022-09-17T11:46:54.859Z,100.00
2022-09-17T11:49:30.059Z,100.00
2022-09-17T11:52:01.714Z,100.00
2022-09-17T11:54:52.193Z,100.00
2022-09-17T11:57:21.285Z,100.00
2022-09-17T11:59:52.874Z,100.00
2022-09-17T12:02:24.370Z,100.00
2022-09-17T12:04:57.333Z,100.00
2022-09-17T12:07:32.498Z,100.00
2022-09-17T12:10:03.528Z,100.00
2022-09-17T12:12:48.984Z,100.00
2022-09-17T12:15:21.630Z,100.00
2022-09-17T12:18:08.608Z,100.00
2022-09-17T12:20:43.219Z,100.00
2022-09-17T12:23:16.365Z,100.00
2022-09-17T12:25:49.286Z,100.00
2022-09-17T12:28:21.294Z,100.00
2022-09-17T12:30:54.462Z,100.00
2022-09-17T12:33:27.387Z,100.00
2022-09-17T12:36:08.741Z,100.00
2022-09-17T12:39:03.448Z,100.00
2022-09-17T12:41:39.549Z,94.95
2022-09-17T12:44:20.522Z,98.55
2022-09-17T12:46:57.018Z,97.92
2022-09-17T12:49:45.408Z,99.85
2022-09-17T12:52:22.354Z,93.39
2022-09-17T12:55:02.073Z,95.36
2022-09-17T12:57:37.368Z,93.44
2022-09-17T13:00:08.444Z,96.63
2022-09-17T13:02:40.345Z,92.67
2022-09-17T13:05:22.793Z,83.77
2022-09-17T13:08:10.070Z,83.46
2022-09-17T13:10:52.930Z,89.58
2022-09-17T13:13:35.928Z,93.30
2022-09-17T13:16:13.445Z,98.15
2022-09-17T13:19:05.488Z,97.94
2022-09-17T13:21:41.090Z,97.52
2022-09-17T13:24:18.421Z,97.80
2022-09-17T13:26:48.056Z,96.99
2022-09-17T13:29:58.895Z,100.00
2022-09-17T13:32:49.353Z,93.50
2022-09-17T13:35:48.911Z,95.61
2022-09-17T13:38:20.190Z,95.62
2022-09-17T13:40:50.802Z,98.00
2022-09-17T13:43:23.930Z,91.99
2022-09-17T13:46:12.402Z,91.87
2022-09-17T13:48:51.810Z,88.88
2022-09-17T13:51:44.994Z,91.89
2022-09-17T13:54:12.982Z,88.33
2022-09-17T13:56:45.282Z,86.34
2022-09-17T13:59:15.069Z,87.70
2022-09-17T14:02:01.279Z,85.47
2022-09-17T14:04:36.864Z,84.33
2022-09-17T14:07:32.853Z,88.00
2022-09-17T14:10:01.119Z,91.91
2022-09-17T14:12:55.252Z,92.23
2022-09-17T14:15:39.454Z,92.34
2022-09-17T14:18:35.685Z,88.59
2022-09-17T14:21:07.852Z,93.47
2022-09-17T14:23:35.345Z,89.42
2022-09-17T14:26:04.443Z,89.16
2022-09-17T14:28:36.562Z,86.18
2022-09-17T14:31:10.919Z,80.21
2022-09-17T14:33:38.533Z,84.43
2022-09-17T14:36:10.459Z,80.64
2022-09-17T14:38:44.590Z,87.51
2022-09-17T14:41:20.576Z,86.15
2022-09-17T14:43:51.219Z,79.80
2022-09-17T14:46:24.424Z,79.79
2022-09-17T14:48:52.297Z,77.93
2022-09-17T14:51:30.578Z,79.21
2022-09-17T14:54:27.198Z,77.60
2022-09-17T14:57:00.431Z,79.44
2022-09-17T14:59:41.821Z,83.13
2022-09-17T15:02:28.549Z,86.71
2022-09-17T15:04:56.564Z,89.03
2022-09-17T15:07:24.949Z,92.80
2022-09-17T15:09:55.305Z,96.87
2022-09-17T15:12:26.147Z,97.01
2022-09-17T15:14:55.537Z,97.03
2022-09-17T15:17:24.792Z,100.00
2022-09-17T15:19:55.355Z,100.00
2022-09-17T15:22:25.103Z,100.00
2022-09-17T15:24:56.161Z,100.00
2022-09-17T15:27:26.992Z,96.18
2022-09-17T15:29:56.938Z,100.00
2022-09-17T15:32:26.679Z,99.83
2022-09-17T15:35:23.803Z,99.43
2022-09-17T15:38:21.146Z,100.00
2022-09-17T15:40:45.017Z,98.29
2022-09-17T15:43:18.735Z,100.00
2022-09-17T15:45:46.509Z,100.00
2022-09-17T15:48:25.088Z,97.33
2022-09-17T15:50:54.480Z,100.00
2022-09-17T15:53:27.098Z,100.00
2022-09-17T15:56:04.757Z,100.00
2022-09-17T15:58:35.944Z,99.88
2022-09-17T16:01:52.809Z,100.00
2022-09-17T16:04:24.970Z,100.00
2022-09-17T16:07:05.025Z,99.86
2022-09-17T16:09:54.187Z,100.00
2022-09-17T16:12:23.545Z,100.00
2022-09-17T16:14:53.029Z,100.00
2022-09-17T16:17:28.098Z,100.00
2022-09-17T16:20:00.334Z,100.00
2022-09-17T16:22:30.217Z,100.00
2022-09-17T16:24:57.842Z,99.26
2022-09-17T16:27:27.285Z,99.88
2022-09-17T16:29:59.625Z,97.21
2022-09-17T16:32:27.242Z,98.99
2022-09-17T16:34:54.911Z,97.29
2022-09-17T16:37:24.119Z,98.51
2022-09-17T16:39:52.510Z,97.44
2022-09-17T16:42:20.461Z,97.45
2022-09-17T16:44:48.365Z,97.46
2022-09-17T16:47:16.064Z,96.83
2022-09-17T16:49:43.742Z,96.91
2022-09-17T16:52:11.611Z,96.77
2022-09-17T16:54:40.740Z,96.34
2022-09-17T16:57:08.367Z,97.27
2022-09-17T16:59:35.985Z,96.79
2022-09-17T17:02:03.657Z,99.22
2022-09-17T17:05:14.129Z,97.83
2022-09-17T17:07:52.081Z,98.51
2022-09-17T17:10:21.178Z,98.86
2022-09-17T17:12:48.922Z,97.57
2022-09-17T17:15:16.643Z,99.00
2022-09-17T17:17:44.344Z,99.50
2022-09-17T17:20:13.701Z,98.92
2022-09-17T17:22:43.337Z,100.00
2022-09-17T17:25:12.218Z,100.00
2022-09-17T17:27:41.945Z,100.00
2022-09-17T17:30:16.748Z,100.00
2022-09-17T17:32:45.153Z,100.00
2022-09-17T17:35:12.801Z,100.00
2022-09-17T17:37:40.450Z,100.00
2022-09-17T17:40:10.315Z,100.00
2022-09-17T17:42:39.407Z,100.00
2022-09-17T17:45:09.503Z,100.00
2022-09-17T17:47:37.486Z,100.00
2022-09-17T17:50:05.777Z,100.00
2022-09-17T17:52:33.391Z,100.00
2022-09-17T17:55:01.054Z,100.00
2022-09-17T17:57:28.708Z,100.00
2022-09-17T17:59:56.542Z,100.00
2022-09-17T18:02:25.657Z,100.00
2022-09-17T18:04:53.417Z,100.00
2022-09-17T18:07:21.097Z,100.00
2022-09-17T18:09:48.745Z,100.00
2022-09-17T18:12:16.415Z,100.00
2022-09-17T18:14:44.069Z,100.00
2022-09-17T18:17:11.740Z,100.00
2022-09-17T18:19:41.099Z,100.00
2022-09-17T18:22:08.791Z,100.00
2022-09-17T18:24:36.514Z,100.00
2022-09-17T18:27:04.404Z,100.00
2022-09-17T18:29:32.012Z,100.00
2022-09-17T18:31:59.738Z,100.00
2022-09-17T18:34:27.566Z,100.00
2022-09-17T18:36:56.720Z,100.00
2022-09-17T18:39:57.097Z,100.00
2022-09-17T18:42:12.210Z,100.00
2022-09-17T18:44:39.927Z,100.00
2022-09-17T18:47:08.134Z,100.00
2022-09-17T18:49:35.933Z,100.00
2022-09-17T18:52:05.284Z,100.00
2022-09-17T18:54:33.004Z,100.00
2022-09-17T18:57:00.582Z,100.00
2022-09-17T18:59:28.247Z,100.00
2022-09-17T19:01:55.930Z,100.00
2022-09-17T19:04:23.659Z,100.00
2022-09-17T19:06:51.331Z,100.00
2022-09-17T19:09:20.447Z,100.00
2022-09-17T19:11:48.361Z,100.00
2022-09-17T19:14:16.080Z,100.00
2022-09-17T19:16:43.753Z,100.00
2022-09-17T19:19:11.526Z,100.00
2022-09-17T19:21:39.260Z,100.00
2022-09-17T19:24:07.252Z,100.00
2022-09-17T19:26:36.282Z,100.00
2022-09-17T19:29:04.685Z,100.00
2022-09-17T19:31:32.610Z,100.00
2022-09-17T19:34:00.450Z,100.00
2022-09-17T19:36:28.161Z,100.00
2022-09-17T19:38:58.549Z,100.00
2022-09-17T19:41:26.500Z,100.00
2022-09-17T19:43:56.902Z,100.00
2022-09-17T19:46:26.408Z,100.00
2022-09-17T19:48:55.880Z,100.00
2022-09-17T19:51:25.241Z,100.00
2022-09-17T19:53:53.129Z,100.00
2022-09-17T19:56:22.323Z,100.00
2022-09-17T19:58:50.440Z,100.00
2022-09-17T20:01:20.167Z,100.00
2022-09-17T20:03:48.125Z,100.00
2022-09-17T20:06:17.707Z,100.00
2022-09-17T20:08:47.223Z,100.00
2022-09-17T20:11:15.915Z,100.00
2022-09-17T20:13:43.677Z,100.00
2022-09-17T20:16:12.896Z,100.00
2022-09-17T20:18:43.779Z,100.00
2022-09-17T20:21:12.698Z,100.00
2022-09-17T20:23:40.543Z,100.00
2022-09-17T20:26:08.730Z,100.00
2022-09-17T20:28:37.138Z,100.00
2022-09-17T20:34:47.125Z,100.00
2022-09-17T20:37:14.840Z,100.00
2022-09-17T20:39:42.849Z,100.00
2022-09-17T20:42:10.916Z,100.00
2022-09-17T20:44:38.744Z,100.00
2022-09-17T20:47:06.514Z,100.00
2022-09-17T20:49:34.616Z,100.00
2022-09-17T20:52:04.803Z,100.00
2022-09-17T20:54:32.429Z,100.00
2022-09-17T20:57:00.062Z,100.00
2022-09-17T20:59:53.901Z,100.00
2022-09-17T21:02:22.270Z,100.00
2022-09-17T21:04:51.125Z,100.00
2022-09-17T21:07:20.126Z,100.00
2022-09-17T21:09:47.736Z,100.00
2022-09-17T21:12:15.590Z,100.00
2022-09-17T21:14:43.275Z,100.00
2022-09-17T21:17:10.950Z,100.00
2022-09-17T21:19:38.554Z,100.00
2022-09-17T21:22:06.281Z,100.00
2022-09-17T21:24:35.237Z,100.00
2022-09-17T21:27:02.800Z,100.00
2022-09-17T21:29:30.839Z,100.00
2022-09-17T21:31:58.483Z,100.00
2022-09-17T21:34:26.132Z,100.00
2022-09-17T21:36:53.764Z,100.00
2022-09-17T21:39:21.399Z,100.00
2022-09-17T21:41:50.417Z,100.00
2022-09-17T21:44:17.984Z,100.00
2022-09-17T21:46:45.589Z,100.00
2022-09-17T21:49:13.823Z,100.00
2022-09-17T21:51:42.616Z,100.00
2022-09-17T21:54:11.588Z,100.00
2022-09-17T21:56:39.497Z,100.00
2022-09-17T21:59:09.317Z,100.00
2022-09-17T22:01:40.424Z,100.00
2022-09-17T22:04:09.120Z,100.00
2022-09-17T22:06:38.250Z,100.00
2022-09-17T22:09:07.425Z,100.00
2022-09-17T22:12:06.711Z,100.00
2022-09-17T22:14:32.735Z,100.00
2022-09-17T22:17:00.322Z,100.00
2022-09-17T22:19:28.032Z,100.00
2022-09-17T22:21:56.716Z,100.00
2022-09-17T22:24:25.210Z,100.00
2022-09-17T22:26:57.894Z,100.00
2022-09-17T22:29:28.123Z,100.00
2022-09-17T22:31:57.718Z,100.00
2022-09-17T22:34:25.883Z,100.00
2022-09-17T22:36:53.681Z,100.00
2022-09-17T22:39:22.129Z,100.00
2022-09-17T22:41:50.622Z,100.00
2022-09-17T22:44:21.094Z,100.00
2022-09-17T22:46:52.402Z,100.00
2022-09-17T22:49:21.515Z,100.00
2022-09-17T22:51:49.362Z,100.00
2022-09-17T22:54:19.074Z,100.00
2022-09-17T22:56:47.450Z,100.00
2022-09-17T22:59:15.154Z,100.00
2022-09-17T23:01:43.498Z,100.00
2022-09-17T23:04:11.558Z,100.00
2022-09-17T23:06:42.897Z,100.00
2022-09-17T23:09:11.135Z,100.00
2022-09-17T23:11:39.569Z,100.00
2022-09-17T23:14:22.528Z,100.00
2022-09-17T23:16:50.414Z,100.00
2022-09-17T23:19:19.851Z,100.00
2022-09-17T23:21:50.884Z,100.00
2022-09-17T23:24:22.174Z,100.00
2022-09-17T23:26:50.693Z,100.00
2022-09-17T23:29:19.224Z,100.00
2022-09-17T23:31:47.157Z,100.00
2022-09-17T23:34:15.147Z,100.00
2022-09-17T23:36:43.208Z,100.00
2022-09-17T23:39:13.271Z,100.00
2022-09-17T23:41:44.886Z,100.00
2022-09-17T23:44:15.631Z,100.00
2022-09-17T23:46:45.983Z,100.00
2022-09-17T23:49:15.214Z,100.00
2022-09-17T23:51:43.194Z,100.00
2022-09-17T23:54:12.539Z,100.00
2022-09-17T23:56:40.642Z,100.00
2022-09-17T23:59:08.672Z,100.00
